createdAt,value
2023-04-12T00:04:15.167Z,0.53
2023-04-12T00:09:38.887Z,0.28
2023-04-12T00:15:02.056Z,0.37
2023-04-12T00:20:25.375Z,0.39
2023-04-12T00:25:47.595Z,0.20
2023-04-12T00:31:09.713Z,0.24
2023-04-12T00:36:31.994Z,0.23
2023-04-12T00:42:05.209Z,-0.08
2023-04-12T00:47:41.804Z,-0.09
2023-04-12T00:53:22.093Z,0.08
2023-04-12T01:05:21.354Z,-0.02
2023-04-12T01:11:19.180Z,0.00
2023-04-12T01:17:10.518Z,-0.29
2023-04-12T01:23:21.869Z,-0.16
2023-04-12T01:28:57.527Z,-0.28
2023-04-12T01:34:28.209Z,-0.37
2023-04-12T01:39:51.558Z,-0.26
2023-04-12T01:45:13.867Z,-0.22
2023-04-12T01:51:07.057Z,-0.23
2023-04-12T01:56:35.950Z,-0.36
2023-04-12T02:02:00.351Z,-0.38
2023-04-12T02:07:23.393Z,-0.27
2023-04-12T02:12:45.352Z,-0.21
2023-04-12T02:18:08.094Z,-0.20
2023-04-12T02:23:31.197Z,-0.25
2023-04-12T02:28:54.035Z,-0.28
2023-04-12T02:34:19.179Z,-0.28
2023-04-12T02:39:46.749Z,-0.29
2023-04-12T02:45:12.033Z,-0.41
2023-04-12T02:50:37.985Z,-0.30
2023-04-12T02:56:09.740Z,-0.28
2023-04-12T03:01:32.642Z,-0.31
2023-04-12T03:07:11.699Z,-0.20
2023-04-12T03:12:44.179Z,-0.04
2023-04-12T03:18:17.722Z,0.13
2023-04-12T03:23:43.963Z,0.31
2023-04-12T03:29:12.740Z,0.41
2023-04-12T03:34:37.220Z,0.57
2023-04-12T03:40:08.118Z,0.74
2023-04-12T03:45:31.419Z,0.68
2023-04-12T03:50:57.551Z,0.70
2023-04-12T03:56:21.790Z,0.91
2023-04-12T04:01:48.528Z,1.23
2023-04-12T04:07:12.507Z,1.59
2023-04-12T04:12:40.085Z,1.78
2023-04-12T04:18:06.110Z,1.90
2023-04-12T04:23:39.850Z,2.21
2023-04-12T04:29:05.799Z,3.21
2023-04-12T04:34:34.784Z,3.65
2023-04-12T04:40:12.157Z,4.49
2023-04-12T04:45:34.466Z,5.01
2023-04-12T04:50:57.206Z,5.55
2023-04-12T04:56:19.530Z,6.29
2023-04-12T05:01:47.870Z,6.86
2023-04-12T05:07:13.729Z,6.90
2023-04-12T05:12:38.899Z,6.73
2023-04-12T05:18:01.235Z,6.84
2023-04-12T05:23:25.327Z,7.20
2023-04-12T05:28:47.763Z,7.74
2023-04-12T05:34:11.406Z,8.20
2023-04-12T05:39:45.558Z,8.94
2023-04-12T05:45:10.967Z,9.79
2023-04-12T05:50:33.303Z,10.34
2023-04-12T05:55:56.301Z,11.05
2023-04-12T06:01:20.502Z,11.36
2023-04-12T06:06:44.231Z,11.74
2023-04-12T06:12:06.875Z,12.14
2023-04-12T06:17:31.547Z,11.81
2023-04-12T06:22:54.120Z,12.30
2023-04-12T06:28:17.032Z,12.50
2023-04-12T06:33:46.087Z,12.88
2023-04-12T06:39:10.352Z,13.39
2023-04-12T06:44:33.880Z,13.48
2023-04-12T06:49:58.527Z,13.92
2023-04-12T06:55:20.656Z,14.20
2023-04-12T07:00:42.776Z,14.49
2023-04-12T07:06:14.073Z,14.80
2023-04-12T07:11:46.419Z,14.95
2023-04-12T07:17:08.990Z,15.08
2023-04-12T07:22:31.039Z,15.23
2023-04-12T07:27:53.231Z,15.28
2023-04-12T07:33:19.609Z,15.27
2023-04-12T07:38:42.398Z,15.31
2023-04-12T07:44:05.735Z,15.26
2023-04-12T07:49:28.159Z,15.44
2023-04-12T07:54:50.149Z,15.56
2023-04-12T08:00:14.988Z,15.55
2023-04-12T08:05:36.754Z,15.75
2023-04-12T08:10:59.129Z,15.90
2023-04-12T08:16:21.587Z,15.98
2023-04-12T08:21:44.109Z,16.09
2023-04-12T08:27:06.199Z,15.92
2023-04-12T08:32:28.373Z,15.87
2023-04-12T08:38:04.563Z,15.85
2023-04-12T08:43:29.838Z,15.41
2023-04-12T08:48:55.613Z,15.22
2023-04-12T08:54:17.688Z,15.05
2023-04-12T08:59:42.944Z,15.05
2023-04-12T09:05:07.320Z,15.61
2023-04-12T09:10:37.866Z,16.12
2023-04-12T09:16:00.583Z,16.48
2023-04-12T09:21:22.449Z,16.54
2023-04-12T09:26:44.800Z,16.70
2023-04-12T09:32:09.782Z,16.82
2023-04-12T09:37:32.219Z,16.57
2023-04-12T09:42:54.870Z,16.35
2023-04-12T09:48:24.168Z,16.32
2023-04-12T09:53:50.147Z,16.50
2023-04-12T09:59:14.113Z,16.20
2023-04-12T10:04:40.917Z,15.72
2023-04-12T10:10:05.605Z,15.54
2023-04-12T10:15:41.673Z,15.18
2023-04-12T10:21:07.799Z,15.21
2023-04-12T10:26:30.963Z,15.17
2023-04-12T10:32:23.583Z,15.26
2023-04-12T10:43:42.214Z,15.57
2023-04-12T10:49:15.208Z,15.91
2023-04-12T10:54:38.988Z,16.23
2023-04-12T11:00:03.898Z,16.24
2023-04-12T11:05:28.911Z,16.25
2023-04-12T11:11:06.459Z,16.12
2023-04-12T11:16:32.600Z,16.03
2023-04-12T11:21:55.345Z,16.10
2023-04-12T11:27:18.827Z,16.04
2023-04-12T11:32:42.968Z,16.04
2023-04-12T11:38:05.117Z,16.00
2023-04-12T11:43:22.286Z,15.91
2023-04-12T11:48:47.333Z,16.23
2023-04-12T11:54:09.197Z,16.28
2023-04-12T11:59:35.429Z,16.40
2023-04-12T12:04:58.423Z,16.66
2023-04-12T12:10:36.587Z,16.64
2023-04-12T12:16:08.755Z,16.73
2023-04-12T12:21:32.458Z,16.83
2023-04-12T12:26:56.386Z,16.90
2023-04-12T12:32:20.403Z,16.94
2023-04-12T12:37:59.967Z,16.95
2023-04-12T12:43:22.420Z,16.98
2023-04-12T12:48:45.270Z,17.03
2023-04-12T12:54:08.806Z,16.95
2023-04-12T12:59:34.127Z,17.01
2023-04-12T13:04:55.841Z,16.87
2023-04-12T13:28:21.828Z,16.30
2023-04-12T13:34:09.142Z,16.05
2023-04-12T13:39:33.856Z,16.31
2023-04-12T13:44:59.229Z,16.29
2023-04-12T13:50:21.980Z,16.13
2023-04-12T13:55:44.228Z,15.85
2023-04-12T14:01:09.242Z,15.78
2023-04-12T14:06:33.209Z,15.64
2023-04-12T14:11:58.065Z,15.71
2023-04-12T14:17:22.417Z,15.72
2023-04-12T14:22:51.913Z,15.71
2023-04-12T14:28:18.785Z,15.73
2023-04-12T14:33:48.626Z,15.59
2023-04-12T14:45:19.035Z,15.35
2023-04-12T14:50:42.611Z,15.47
2023-04-12T14:56:15.286Z,15.08
2023-04-12T15:01:38.412Z,15.10
2023-04-12T15:07:00.887Z,14.59
2023-04-12T15:12:23.305Z,14.39
2023-04-12T15:17:46.834Z,14.15
2023-04-12T15:23:16.626Z,14.17
2023-04-12T15:28:43.079Z,13.79
2023-04-12T15:34:07.946Z,13.32
2023-04-12T15:39:30.652Z,13.30
2023-04-12T15:44:52.716Z,13.09
2023-04-12T15:50:15.076Z,12.73
2023-04-12T15:55:37.432Z,12.41
2023-04-12T16:01:00.667Z,12.24
2023-04-12T16:06:24.993Z,11.85
2023-04-12T16:11:49.546Z,11.61
2023-04-12T16:17:13.268Z,11.39
2023-04-12T16:22:36.489Z,11.01
2023-04-12T16:28:03.636Z,10.88
2023-04-12T16:33:26.055Z,10.77
2023-04-12T16:38:50.899Z,10.51
2023-04-12T16:44:19.748Z,10.22
2023-04-12T16:49:43.259Z,9.87
2023-04-12T16:55:12.533Z,9.68
2023-04-12T17:00:42.935Z,9.37
2023-04-12T17:06:06.533Z,9.11
2023-04-12T17:11:35.120Z,8.88
2023-04-12T17:17:06.680Z,8.63
2023-04-12T17:22:33.003Z,8.46
2023-04-12T17:28:01.762Z,8.24
2023-04-12T17:33:37.961Z,8.11
2023-04-12T17:39:16.319Z,7.78
2023-04-12T17:44:40.214Z,7.62
2023-04-12T17:50:10.766Z,7.46
2023-04-12T17:55:39.723Z,7.43
2023-04-12T18:01:02.735Z,7.43
2023-04-12T18:06:25.135Z,7.24
2023-04-12T18:11:47.431Z,7.14
2023-04-12T18:17:11.859Z,6.97
2023-04-12T18:22:33.607Z,6.77
2023-04-12T18:27:56.210Z,6.64
2023-04-12T18:33:18.642Z,6.51
2023-04-12T18:38:44.629Z,6.31
2023-04-12T18:44:09.405Z,6.18
2023-04-12T18:49:31.833Z,6.05
2023-04-12T18:54:53.793Z,5.95
2023-04-12T19:00:16.627Z,5.72
2023-04-12T19:05:39.120Z,5.70
2023-04-12T19:11:02.238Z,5.60
2023-04-12T19:16:24.976Z,5.36
2023-04-12T19:21:47.107Z,5.24
2023-04-12T19:27:09.668Z,5.01
2023-04-12T19:32:31.630Z,4.90
2023-04-12T19:37:56.647Z,4.84
2023-04-12T19:43:21.970Z,4.57
2023-04-12T19:48:43.567Z,4.55
2023-04-12T19:54:05.659Z,4.42
2023-04-12T19:59:31.255Z,4.26
2023-04-12T20:04:54.212Z,4.18
2023-04-12T20:10:16.740Z,4.16
2023-04-12T20:15:39.429Z,4.04
2023-04-12T20:21:01.032Z,3.96
2023-04-12T20:26:23.547Z,3.95
2023-04-12T20:31:48.419Z,3.74
2023-04-12T20:37:10.408Z,3.62
2023-04-12T20:42:36.298Z,3.33
2023-04-12T20:48:08.651Z,3.46
2023-04-12T20:53:32.525Z,3.30
2023-04-12T20:59:04.983Z,3.22
2023-04-12T21:04:36.749Z,3.07
2023-04-12T21:10:02.897Z,3.04
2023-04-12T21:15:29.156Z,2.96
2023-04-12T21:21:00.441Z,2.85
2023-04-12T21:26:23.297Z,2.90
2023-04-12T21:31:55.856Z,2.72
2023-04-12T21:37:22.819Z,2.49
2023-04-12T21:42:47.271Z,2.60
2023-04-12T21:48:09.184Z,2.62
2023-04-12T21:53:31.558Z,2.61
2023-04-12T21:58:53.811Z,2.47
2023-04-12T22:04:16.038Z,2.54
2023-04-12T22:09:38.227Z,2.36
2023-04-12T22:15:00.401Z,2.31
2023-04-12T22:20:22.362Z,2.19
2023-04-12T22:25:46.048Z,2.05
2023-04-12T22:31:08.843Z,2.03
2023-04-12T22:36:37.748Z,1.82
2023-04-12T22:42:00.487Z,1.84
2023-04-12T22:47:22.236Z,1.78
2023-04-12T22:52:44.238Z,1.81
2023-04-12T22:58:06.314Z,1.52
2023-04-12T23:03:29.464Z,1.49
2023-04-12T23:08:51.513Z,1.44
2023-04-12T23:14:14.522Z,1.25
2023-04-12T23:19:36.853Z,1.49
2023-04-12T23:25:02.653Z,1.42
2023-04-12T23:30:30.306Z,1.46
2023-04-12T23:36:03.330Z,1.33
2023-04-12T23:41:28.161Z,1.29
2023-04-12T23:46:49.954Z,1.22
2023-04-12T23:52:12.162Z,1.15
2023-04-12T23:57:34.115Z,1.07
